Latest Weather Observations for Mareeba

IDQ60801

Issued at 7:22 pm EST Wednesday 12 August 2020 (issued every 10 minutes, with the page automatically refreshed every 10 minutes)

About weather observations | Map of weather stations | Latest weather observations for QLD | Other Formats
Station Details ID: 031210 Name: MAREEBA AIRPORT Lat: -17.07 Lon: 145.43 Height: 471.93 m
Data from the previous 72 hours. | See also: Recent months at Mareeba
Date/Time
EST
Temp
°C
App
Temp
°C
Dew
Point
°C
Rel
Hum
%
Delta-T
°C
Wind Press
QNH
hPa
Press
MSL
hPa
Rain since
9am
mm
Dir  Spd
km/h
Gust
km/h
Spd
kts
Gust
kts
12/07:00pm 20.0 21.1 17.2 84 1.7 N 7 15 4 8 1016.8 1014.9 0.0
12/06:30pm 20.7 21.3 16.9 79 2.4 N 9 13 5 7 1016.6 1014.7 0.0
12/06:00pm 21.8 22.5 17.0 74 3.0 NE 9 17 5 9 1016.3 1014.4 0.0
12/05:30pm 23.1 23.4 17.1 69 3.8 NNE 11 15 6 8 1015.9 1014.0 0.0
12/05:00pm 24.4 24.5 17.4 65 4.4 NNE 13 22 7 12 1015.6 1013.6 0.0
12/04:30pm 25.6 25.0 17.5 61 5.2 NNE 17 24 9 13 1015.1 1013.2 0.0
12/04:00pm 26.5 25.4 17.3 57 5.9 NNE 19 26 10 14 1015.0 1013.1 0.0
12/03:30pm 27.8 26.8 16.7 50 7.0 NNE 17 22 9 12 1015.0 1013.1 0.0
12/03:00pm 29.7 29.7 14.3 39 9.5 N 7 15 4 8 1015.1 1013.2 0.0
12/02:30pm 28.8 28.4 14.2 40 9.0 ENE 9 15 5 8 1015.6 1013.6 0.0
12/02:00pm 28.7 28.6 14.9 43 8.5 NNW 9 15 5 8 1016.1 1014.2 0.0
12/01:30pm 27.4 27.6 14.8 46 7.8 E 7 13 4 7 1016.6 1014.7 0.0
12/01:00pm 27.6 28.0 15.3 47 7.6 ENE 7 13 4 7 1017.2 1015.3 0.0
12/12:30pm 27.4 28.4 16.4 51 6.9 NE 6 13 3 7 1017.8 1015.9 0.0
12/12:00pm 26.0 26.7 16.0 54 6.2 W 7 19 4 10 1018.5 1016.6 0.0
12/11:30am 25.7 26.1 16.3 56 5.9 WNW 9 15 5 8 1019.1 1017.2 0.0
12/11:00am 24.7 25.7 16.4 60 5.2 W 6 11 3 6 1019.8 1017.9 0.0
12/10:30am 23.4 23.7 16.0 63 4.6 N 9 13 5 7 1020.4 1018.5 0.0
12/10:00am 23.4 24.9 16.7 66 4.2 WNW 4 9 2 5 1020.6 1018.7 0.0
12/09:30am 22.9 24.3 16.4 67 4.0 NW 4 9 2 5 1020.6 1018.7 0.0
12/09:00am 21.8 22.6 15.9 69 3.6 ESE 6 11 3 6 1020.4 1018.5 0.0
12/08:30am 21.2 21.9 16.0 72 3.2 SE 7 11 4 6 1020.0 1018.1 0.0
12/08:00am 19.0 19.8 15.9 82 1.9 SSE 6 9 3 5 1019.8 1017.9 0.0
12/07:30am 18.4 19.9 15.6 84 1.7 SSE 2 7 1 4 1019.6 1017.8 0.0
12/07:00am 18.3 19.6 15.2 82 1.8 SE 2 6 1 3 1019.2 1017.3 0.0
12/06:33am 18.4 18.8 15.3 82 1.9 SE 7 9 4 5 1018.9 1017.0 0.0
12/06:30am 18.4 18.8 15.3 82 1.9 SE 7 9 4 5 1018.9 1017.0 0.0
12/06:00am 18.4 18.4 15.1 81 2.0 SSE 9 11 5 6 1018.7 1016.8 0.0
12/05:30am 18.5 18.5 15.2 81 2.0 SSW 9 11 5 6 1018.4 1016.5 0.0
12/05:00am 18.5 18.9 15.2 81 2.0 SE 7 9 4 5 1017.8 1015.9 0.0
12/04:30am 18.4 18.4 15.1 81 2.0 SSE 9 13 5 7 1017.5 1015.5 0.0
12/04:00am 18.4 18.0 15.1 81 2.0 SSE 11 13 6 7 1017.5 1015.5 0.0
12/03:30am 18.2 18.2 15.1 82 1.8 SSE 9 13 5 7 1017.7 1015.8 0.0
12/03:00am 18.0 18.4 15.3 84 1.6 SSE 7 11 4 6 1017.7 1015.8 0.0
12/02:30am 18.0 19.7 15.3 84 1.6 CALM 0 0 0 0 1018.0 1016.1 0.0
12/02:00am 17.3 19.1 15.5 89 1.1 CALM 0 0 0 0 1018.3 1016.4 0.0
12/01:30am 16.9 18.6 15.2 90 1.0 CALM 0 0 0 0 1018.5 1016.6 0.0
12/01:00am 16.2 17.9 15.1 93 0.6 CALM 0 0 0 0 1018.9 1017.0 0.0
12/12:30am 15.8 17.5 15.2 96 0.4 CALM 0 4 0 2 1019.1 1017.2 0.0
12/12:07am 15.1 16.5 14.3 95 0.5 CALM 0 0 0 0 1019.4 1017.6 0.0
12/12:00am 14.9 16.1 13.9 94 0.6 CALM 0 0 0 0 1019.4 1017.6 0.0
 
Date/Time
EST
Temp
°C
App
Temp
°C
Dew
Point
°C
Rel
Hum
%
Delta-T
°C
Wind Press
QNH
hPa
Press
MSL
hPa
Rain since
9am
mm
Dir  Spd
km/h
Gust
km/h
Spd
kts
Gust
kts
11/11:30pm 14.7 15.7 13.2 91 0.9 CALM 0 0 0 0 1019.4 1017.6 0.0
11/11:00pm 15.4 16.6 13.8 90 0.9 CALM 0 0 0 0 1019.4 1017.6 0.0
11/10:30pm 16.0 17.3 14.2 89 1.0 CALM 0 0 0 0 1019.3 1017.4 0.0
11/10:00pm 16.7 18.0 14.2 85 1.5 CALM 0 0 0 0 1019.3 1017.4 0.0
11/09:49pm 17.0 18.5 14.6 86 1.4 CALM 0 0 0 0 1019.3 1017.4 0.0
11/09:30pm 17.2 18.7 14.7 85 1.5 CALM 0 0 0 0 1019.2 1017.3 0.0
11/09:00pm 16.7 18.0 14.2 85 1.5 CALM 0 0 0 0 1019.0 1017.1 0.0
11/08:48pm 16.8 18.1 14.1 84 1.6 CALM 0 0 0 0 1018.9 1017.0 0.0
11/08:30pm 17.1 18.4 14.2 83 1.7 CALM 0 0 0 0 1018.8 1016.9 0.0
11/08:00pm 17.4 18.6 13.7 79 2.1 CALM 0 0 0 0 1018.6 1016.7 0.0
11/07:30pm 18.0 18.1 13.9 77 2.4 N 6 9 3 5 1018.1 1016.2 0.0
11/07:00pm 18.7 18.8 14.4 76 2.5 N 7 11 4 6 1017.5 1015.5 0.0
11/06:30pm 19.4 18.3 14.4 73 3.0 NNE 13 17 7 9 1017.2 1015.3 0.0
11/06:00pm 20.3 19.6 14.4 69 3.5 N 11 17 6 9 1016.7 1014.8 0.0
11/05:30pm 21.9 21.0 14.8 64 4.3 NE 13 20 7 11 1016.3 1014.4 0.0
11/05:00pm 23.7 23.0 15.5 60 5.0 NNE 13 22 7 12 1015.6 1013.6 0.0
11/04:30pm 25.0 24.3 15.3 55 6.0 NNE 13 20 7 11 1015.1 1013.2 0.0
11/04:00pm 25.7 24.6 15.4 53 6.4 NNE 15 20 8 11 1014.9 1013.0 0.0
11/03:30pm 26.1 26.1 15.2 51 6.7 NE 9 19 5 10 1015.1 1013.2 0.0
11/03:00pm 26.6 26.4 15.6 50 6.8 NNW 11 13 6 7 1015.1 1013.2 0.0
11/02:30pm 26.7 26.7 15.1 49 7.2 NNW 9 13 5 7 1015.5 1013.5 0.0
11/02:00pm 24.5 23.5 14.6 54 6.0 N 13 19 7 10 1015.9 1014.0 0.0
11/01:30pm 25.6 26.0 14.7 51 6.7 WSW 6 15 3 8 1016.3 1014.4 0.0
11/01:00pm 24.8 25.1 14.9 54 6.0 NW 7 15 4 8 1016.8 1014.9 0.0
11/12:30pm 24.9 25.2 15.0 54 6.1 N 7 17 4 9 1017.3 1015.4 0.0
11/12:00pm 23.0 22.2 14.0 57 5.4 N 11 17 6 9 1018.0 1016.1 0.0
11/11:30am 22.6 22.3 14.4 60 4.9 NNE 9 11 5 6 1018.5 1016.6 0.0
11/11:00am 22.0 22.5 14.1 61 4.7 NE 4 9 2 5 1019.1 1017.2 0.0
11/10:30am 20.1 19.8 13.3 65 4.0 N 7 11 4 6 1019.5 1017.7 0.0
11/10:00am 19.3 19.1 13.5 69 3.4 N 7 9 4 5 1019.8 1017.9 0.0
11/09:48am 19.2 18.9 13.4 69 3.4 NNW 7 11 4 6 1019.6 1017.8 0.0
11/09:30am 19.2 20.3 13.4 69 3.4 CALM 0 0 0 0 1019.6 1017.8 0.0
11/09:13am 18.8 19.9 13.6 72 3.0 CALM 0 0 0 0 1019.5 1017.7 0.0
11/09:00am 18.6 19.4 13.7 73 2.9 ESE 2 6 1 3 1019.4 1017.6 0.0
11/08:57am 18.4 18.7 13.5 73 2.8 ESE 4 7 2 4 1019.4 1017.6 0.0
11/08:42am 18.2 18.9 13.5 74 2.7 ESE 2 7 1 4 1019.3 1017.4 0.0
11/08:31am 17.9 18.2 13.4 75 2.6 SE 4 7 2 4 1019.2 1017.3 0.0
11/08:30am 17.8 18.1 13.3 75 2.6 SE 4 7 2 4 1019.2 1017.3 0.0
11/08:00am 16.9 16.5 13.0 78 2.2 SE 7 11 4 6 1018.9 1017.0 0.0
11/07:30am 16.2 16.0 12.9 81 1.9 SSE 6 9 3 5 1018.6 1016.7 0.0
11/07:00am 15.4 13.9 12.0 80 1.9 SE 11 15 6 8 1018.4 1016.5 0.0
11/06:30am 14.9 13.0 11.9 82 1.7 SSE 13 19 7 10 1018.2 1016.3 0.0
11/06:23am 14.8 12.5 11.9 83 1.6 SSE 15 19 8 10 1018.2 1016.3 0.0
11/06:00am 14.4 12.4 11.6 83 1.5 SE 13 17 7 9 1017.9 1016.0 0.0
11/05:30am 13.6 12.3 11.1 85 1.4 SE 9 11 5 6 1017.6 1015.7 0.0
11/05:00am 13.1 11.3 10.8 86 1.2 SE 11 15 6 8 1017.3 1015.4 0.0
11/04:30am 12.7 11.5 10.2 85 1.3 SSE 7 9 4 5 1017.2 1015.3 0.0
11/04:00am 12.8 11.6 10.2 84 1.4 SSE 7 11 4 6 1017.1 1015.2 0.0
11/03:30am 13.1 11.5 10.3 83 1.5 SSE 9 13 5 7 1017.1 1015.2 0.0
11/03:00am 13.5 11.9 10.3 81 1.7 SE 9 13 5 7 1017.2 1015.3 0.0
11/02:30am 13.4 12.2 10.2 81 1.7 SSE 7 11 4 6 1017.3 1015.4 0.0
11/02:00am 13.9 11.9 10.3 79 1.9 SE 11 15 6 8 1017.5 1015.5 0.0
11/01:30am 14.1 12.2 10.5 79 1.9 SE 11 13 6 7 1017.7 1015.8 0.0
11/01:00am 14.3 12.5 10.9 80 1.8 SE 11 15 6 8 1017.9 1016.0 0.0
11/12:30am 14.4 12.3 11.0 80 1.8 SE 13 17 7 9 1018.0 1016.1 0.0
11/12:00am 14.5 12.3 10.9 79 1.9 SE 13 15 7 8 1018.1 1016.2 0.0
 
Date/Time
EST
Temp
°C
App
Temp
°C
Dew
Point
°C
Rel
Hum
%
Delta-T
°C
Wind Press
QNH
hPa
Press
MSL
hPa
Rain since
9am
mm
Dir  Spd
km/h
Gust
km/h
Spd
kts
Gust
kts
10/11:30pm 14.9 12.4 10.9 77 2.2 SE 15 22 8 12 1017.9 1016.0 0.0
10/11:00pm 15.1 12.2 10.9 76 2.3 SE 17 20 9 11 1018.1 1016.2 0.0
10/10:30pm 15.2 13.6 11.4 78 2.1 SSE 11 17 6 9 1018.1 1016.2 0.0
10/10:00pm 15.3 14.0 11.3 77 2.2 SE 9 15 5 8 1018.0 1016.1 0.0
10/09:30pm 15.6 15.1 12.2 80 1.9 ESE 6 13 3 7 1018.0 1016.1 0.0
10/09:00pm 15.0 15.6 12.0 82 1.7 CALM 0 0 0 0 1017.9 1016.0 0.0
10/08:30pm 15.9 16.6 12.1 78 2.1 CALM 0 0 0 0 1017.6 1015.7 0.0
10/08:00pm 16.7 17.4 12.3 75 2.5 CALM 0 0 0 0 1017.2 1015.3 0.0
10/07:30pm 17.3 17.9 11.8 70 3.1 CALM 0 6 0 3 1016.8 1014.9 0.0
10/07:00pm 17.9 17.3 11.7 67 3.5 N 6 11 3 6 1016.4 1014.5 0.0
10/06:30pm 18.8 18.3 11.9 64 3.9 NE 6 9 3 5 1016.1 1014.2 0.0
10/06:00pm 19.9 18.8 11.9 60 4.5 NNE 9 17 5 9 1015.7 1013.8 0.0
10/05:30pm 21.1 19.3 12.0 56 5.2 NNE 13 20 7 11 1015.3 1013.3 0.0
10/05:00pm 22.2 20.5 12.5 54 5.6 NNE 13 20 7 11 1014.9 1013.0 0.0
10/04:30pm 23.0 21.3 12.6 52 6.1 NE 13 20 7 11 1014.7 1012.8 0.0
10/04:00pm 24.1 21.9 13.3 51 6.4 NE 17 28 9 15 1014.5 1012.6 0.0
10/03:30pm 24.5 22.0 13.4 50 6.6 NNE 19 28 10 15 1014.4 1012.5 0.0
10/03:00pm 25.2 23.0 13.4 48 7.0 NNE 17 24 9 13 1014.4 1012.5 0.0
10/02:30pm 25.9 24.2 13.7 47 7.3 NNE 15 24 8 13 1014.6 1012.7 0.0
10/02:00pm 26.1 25.0 14.2 48 7.2 NNE 13 26 7 14 1014.9 1013.0 0.0
10/01:30pm 26.3 24.4 14.1 47 7.4 N 17 24 9 13 1015.3 1013.3 0.0
10/01:00pm 26.1 25.0 13.2 44 7.7 N 11 17 6 9 1015.7 1013.8 0.0
10/12:30pm 25.7 24.7 13.5 46 7.3 NNW 11 17 6 9 1016.1 1014.2 0.0
10/12:00pm 25.2 25.4 14.3 50 6.6 N 6 15 3 8 1016.6 1014.7 0.0
10/11:30am 25.1 25.6 15.1 53 6.1 NNE 6 11 3 6 1017.0 1015.1 0.0
10/11:00am 23.6 23.9 14.6 57 5.4 NE 6 9 3 5 1017.5 1015.5 0.0
10/10:30am 23.3 23.5 14.6 58 5.3 E 7 15 4 8 1017.9 1016.0 0.0
10/10:00am 22.8 20.9 11.8 50 6.3 S 13 20 7 11 1018.0 1016.1 0.0
10/09:30am 22.0 21.2 12.8 56 5.4 ESE 9 15 5 8 1018.1 1016.2 0.0
10/09:00am 21.0 19.1 12.9 60 4.7 SE 15 20 8 11 1017.9 1016.0 0.0
10/08:30am 20.3 17.3 11.8 58 4.8 SSE 19 26 10 14 1017.7 1015.8 0.0
10/08:00am 19.0 17.0 13.8 72 3.0 SSE 17 22 9 12 1017.5 1015.5 0.0
10/07:30am 17.8 18.0 14.3 80 2.1 S 6 9 3 5 1017.2 1015.3 0.0
10/07:21am 17.7 17.8 14.4 81 1.9 S 7 9 4 5 1017.1 1015.2 0.0
10/07:00am 17.8 17.2 14.7 82 1.8 SSE 11 15 6 8 1017.1 1015.2 0.0
10/06:30am 17.9 16.5 14.6 81 1.9 SSE 15 20 8 11 1016.8 1014.9 0.0
10/06:00am 17.4 16.2 14.1 81 1.9 SSE 13 17 7 9 1016.7 1014.8 0.0
10/05:30am 17.1 15.8 13.6 80 2.0 SSE 13 20 7 11 1016.5 1014.6 0.0
10/05:00am 17.4 15.9 14.3 82 1.8 SSE 15 20 8 11 1016.2 1014.3 0.0
10/04:30am 17.2 15.4 14.5 84 1.6 SSE 17 22 9 12 1016.2 1014.3 0.0
10/04:00am 17.4 17.0 15.2 87 1.3 SSE 11 15 6 8 1016.1 1014.2 0.0
10/03:30am 17.9 16.8 15.2 84 1.6 SSE 15 22 8 12 1015.9 1014.0 0.0
10/03:00am 17.9 16.8 15.2 84 1.6 SE 15 20 8 11 1016.0 1014.1 0.0
10/02:30am 18.1 17.0 15.4 84 1.6 SSE 15 20 8 11 1016.2 1014.3 0.0
10/02:00am 18.3 19.9 15.0 81 2.0 CALM 0 0 0 0 1016.4 1014.5 0.0
10/01:30am 18.4 20.1 15.1 81 2.0 CALM 0 0 0 0 1016.6 1014.7 0.0
10/01:00am 18.4 20.1 15.1 81 2.0 CALM 0 0 0 0 1016.9 1015.0 0.0
10/12:30am 18.3 20.0 15.2 82 1.9 CALM 0 0 0 0 1017.2 1015.3 0.0
10/12:00am 18.3 20.1 15.4 83 1.7 CALM 0 0 0 0 1017.6 1015.7 0.0
 
Date/Time
EST
Temp
°C
App
Temp
°C
Dew
Point
°C
Rel
Hum
%
Delta-T
°C
Wind Press
QNH
hPa
Press
MSL
hPa
Rain since
9am
mm
Dir  Spd
km/h
Gust
km/h
Spd
kts
Gust
kts
09/11:30pm 18.5 20.3 15.6 83 1.7 CALM 0 2 0 1 1017.3 1015.4 0.0
09/11:00pm 18.9 20.9 16.0 83 1.8 CALM 0 0 0 0 1017.3 1015.4 0.0
09/10:30pm 19.2 21.2 15.9 81 2.0 CALM 0 0 0 0 1017.5 1015.5 0.0
09/10:00pm 19.2 21.3 16.2 83 1.8 CALM 0 0 0 0 1017.5 1015.5 0.0
09/09:30pm 19.1 21.1 16.1 83 1.8 CALM 0 0 0 0 1017.1 1015.2 0.0
09/09:00pm 19.2 21.4 16.4 84 1.7 CALM 0 0 0 0 1017.2 1015.3 0.0
09/08:30pm 19.8 22.0 16.6 82 2.0 CALM 0 7 0 4 1017.0 1015.1 0.0
09/08:18pm 20.0 21.9 16.8 82 2.0 ENE 2 7 1 4 1017.0 1015.1 0.0
09/08:00pm 20.1 22.0 16.7 81 2.1 NNE 2 9 1 5 1016.7 1014.8 0.0
09/07:30pm 20.7 21.7 16.9 79 2.4 NNE 7 11 4 6 1016.3 1014.4 0.0

Other formats

Comma delimited format used in spreadsheet applications
http://www.bom.gov.au/fwo/IDQ60801/IDQ60801.95286.axf

JavaScript Object Notation format (JSON) in row-major order
http://www.bom.gov.au/fwo/IDQ60801/IDQ60801.95286.json

Data quality

Most of these data are generated automatically and are frequently updated. Quality checks on data are not normally performed. It is possible for incorrect values to appear. Refer to information at About Latest Weather Observations and please check the disclaimer before using these data.